Arcadia, Illinois
Current Conditions -  °F | °C
As of 2:55 AM on Wednesday 28 Jan 2015 (Local Time) from KIJX Reporting Station
Clear Clear  
Wind Chill: -6°   Ceiling: Unl
Heat Index: -2°   Visibility: 7mi
Dew Point: -4°   Wind: 9mph
Humidity: 87%   Direction: 120°ESE
Pressure: 30.23"   Gusts: NA
Location:  39.7413°N, 90.2138°W
Report Text: KIJX 280855Z AUTO 12008KT 7SM CLR M02/M03 A3023 RMK AO2 T10161035
Loading
Personal Weather Stations






























Interactive Weather Map New forecast layout! Learn more

10-Day Weather Forecast

Advertisements
Track Severe Weather on mobile